createdAt,value
2022-12-15T05:33:35.274Z,6.21
2022-12-15T05:36:49.303Z,6.22
2022-12-15T05:40:03.117Z,5.60
2022-12-15T05:43:21.628Z,5.39
2022-12-15T05:46:38.645Z,5.80
2022-12-15T05:49:53.578Z,5.97
2022-12-15T05:53:07.267Z,5.64
2022-12-15T05:56:21.150Z,5.63
2022-12-15T05:59:35.051Z,5.89
2022-12-15T06:02:49.853Z,5.93
2022-12-15T06:06:05.814Z,5.96
2022-12-15T06:09:19.603Z,6.13
2022-12-15T06:12:33.433Z,6.42
2022-12-15T06:15:56.073Z,6.10
2022-12-15T06:19:09.967Z,6.30
2022-12-15T06:22:25.246Z,6.49
2022-12-15T06:25:39.052Z,6.81
2022-12-15T06:28:53.114Z,6.80
2022-12-15T06:32:07.085Z,6.39
2022-12-15T06:35:21.418Z,6.63
2022-12-15T06:38:36.614Z,6.44
2022-12-15T06:41:50.449Z,6.59
2022-12-15T06:45:04.494Z,6.39
2022-12-15T06:48:18.159Z,5.97
2022-12-15T06:51:32.363Z,5.80
2022-12-15T06:54:47.553Z,5.64
2022-12-15T06:58:01.404Z,5.56
2022-12-15T07:01:15.714Z,5.79
2022-12-15T07:04:30.579Z,5.86
2022-12-15T07:07:45.655Z,5.75
2022-12-15T07:11:00.925Z,5.96
2022-12-15T07:14:14.822Z,5.72
2022-12-15T07:17:28.402Z,5.72
2022-12-15T07:20:42.082Z,6.15
2022-12-15T07:23:57.324Z,6.49
2022-12-15T07:27:13.200Z,6.63
2022-12-15T07:30:27.112Z,6.34
2022-12-15T07:33:40.717Z,6.14
2022-12-15T07:36:54.855Z,6.20
2022-12-15T07:40:10.020Z,6.67
2022-12-15T07:43:25.211Z,6.37
2022-12-15T07:46:39.195Z,5.88
2022-12-15T07:49:53.361Z,6.01
2022-12-15T07:53:07.137Z,5.68
2022-12-15T07:56:21.179Z,5.51
2022-12-15T07:59:36.054Z,5.87
2022-12-15T08:02:50.101Z,6.13
2022-12-15T08:06:05.581Z,6.23
2022-12-15T08:09:20.249Z,6.02
2022-12-15T08:12:34.101Z,6.09
2022-12-15T08:15:49.386Z,6.26
2022-12-15T08:19:03.581Z,6.42
2022-12-15T08:22:17.393Z,6.56
2022-12-15T08:25:31.173Z,6.25
2022-12-15T08:28:45.012Z,6.67
2022-12-15T08:32:00.334Z,6.72
2022-12-15T08:35:38.947Z,7.05
2022-12-15T08:38:52.181Z,6.58
2022-12-15T08:42:06.156Z,6.57
2022-12-15T08:45:19.919Z,6.84
2022-12-15T08:48:35.425Z,7.09
2022-12-15T08:51:50.148Z,7.08
2022-12-15T08:55:04.485Z,6.94
2022-12-15T08:58:18.304Z,7.19
2022-12-15T09:01:32.972Z,7.23
2022-12-15T09:04:48.561Z,7.24
2022-12-15T09:08:06.539Z,7.37
2022-12-15T09:11:20.748Z,7.15
2022-12-15T09:14:34.666Z,7.20
2022-12-15T09:17:48.345Z,7.15
2022-12-15T09:21:04.277Z,7.10
2022-12-15T09:24:27.424Z,7.30
2022-12-15T09:27:43.086Z,7.45
2022-12-15T09:31:00.391Z,7.37
2022-12-15T09:34:15.074Z,7.81
2022-12-15T09:37:30.991Z,7.65
2022-12-15T09:40:44.777Z,7.46
2022-12-15T09:44:04.653Z,7.37
2022-12-15T09:47:20.355Z,7.40
2022-12-15T09:50:36.194Z,7.51
2022-12-15T09:53:55.796Z,7.83
2022-12-15T09:57:13.375Z,7.45
2022-12-15T10:00:29.436Z,7.57
2022-12-15T10:03:49.817Z,7.10
2022-12-15T10:07:07.227Z,7.18
2022-12-15T10:10:25.318Z,7.51
2022-12-15T10:13:42.002Z,7.86
2022-12-15T10:17:02.526Z,8.25
2022-12-15T10:20:18.941Z,8.56
2022-12-15T10:23:34.798Z,8.25
2022-12-15T10:26:55.548Z,8.12
2022-12-15T10:30:10.795Z,8.45
2022-12-15T10:33:25.096Z,8.32
2022-12-15T10:36:39.009Z,8.48
2022-12-15T10:39:52.754Z,8.16
2022-12-15T10:43:09.437Z,8.42
2022-12-15T10:46:24.685Z,8.31
2022-12-15T10:49:38.781Z,8.14
2022-12-15T10:52:52.586Z,8.34
2022-12-15T10:56:07.270Z,8.65
2022-12-15T10:59:26.154Z,8.40
2022-12-15T11:02:42.276Z,8.03
2022-12-15T11:05:57.240Z,8.36
2022-12-15T11:09:28.194Z,8.68
2022-12-15T11:13:01.966Z,8.43
2022-12-15T11:16:17.740Z,8.65
2022-12-15T11:19:35.169Z,8.87
2022-12-15T11:22:51.785Z,8.55
2022-12-15T11:29:56.667Z,8.54
2022-12-15T11:33:12.090Z,8.50
2022-12-15T11:36:44.780Z,8.64
2022-12-15T11:40:05.424Z,8.80
2022-12-15T11:47:31.536Z,8.64
2022-12-15T11:50:53.592Z,8.94
2022-12-15T11:54:21.047Z,9.01
2022-12-15T11:57:46.438Z,9.23
2022-12-15T12:01:07.923Z,9.19
2022-12-15T12:04:23.242Z,9.18
2022-12-15T12:07:42.517Z,9.34
2022-12-15T12:11:00.156Z,9.42
2022-12-15T12:14:24.249Z,9.69
2022-12-15T12:17:45.788Z,9.67
2022-12-15T12:21:01.396Z,9.69
2022-12-15T12:24:19.717Z,9.75
2022-12-15T12:27:37.655Z,9.45
2022-12-15T12:30:51.504Z,9.35
2022-12-15T12:34:10.189Z,9.30
2022-12-15T12:37:26.043Z,9.05
2022-12-15T12:40:49.791Z,8.99
2022-12-15T12:44:05.432Z,9.10
2022-12-15T12:47:22.514Z,9.19
2022-12-15T12:50:36.323Z,8.94
2022-12-15T12:53:50.275Z,9.04
2022-12-15T12:57:24.613Z,9.06
2022-12-15T13:00:38.696Z,8.83
2022-12-15T13:04:09.105Z,9.01
2022-12-15T13:07:30.143Z,9.24
2022-12-15T13:10:44.758Z,9.49
2022-12-15T13:14:03.630Z,9.23
2022-12-15T13:17:29.615Z,9.29
2022-12-15T13:20:43.605Z,9.24
2022-12-15T13:23:59.710Z,9.21
2022-12-15T13:27:15.518Z,9.19
2022-12-15T13:30:30.988Z,9.17
2022-12-15T13:33:46.426Z,9.03
2022-12-15T13:37:02.748Z,8.99
2022-12-15T13:40:26.532Z,8.92
2022-12-15T13:43:43.878Z,8.83
2022-12-15T13:47:07.683Z,8.77
2022-12-15T13:50:29.995Z,8.71
2022-12-15T13:53:44.809Z,8.77
2022-12-15T13:57:05.964Z,8.54
2022-12-15T14:00:20.238Z,8.37
2022-12-15T14:03:35.991Z,8.66
2022-12-15T14:06:52.067Z,8.46
2022-12-15T14:10:06.592Z,8.02
2022-12-15T14:13:22.316Z,8.27
2022-12-15T14:16:36.465Z,8.36
2022-12-15T14:19:51.764Z,8.03
2022-12-15T14:23:14.244Z,8.27
2022-12-15T14:26:30.934Z,8.07
2022-12-15T14:29:44.931Z,8.06
2022-12-15T14:32:59.314Z,8.18
2022-12-15T14:36:15.098Z,8.16
2022-12-15T14:39:31.286Z,8.07
2022-12-15T14:42:45.097Z,8.19
2022-12-15T14:46:07.703Z,8.32
2022-12-15T14:49:22.826Z,8.51
2022-12-15T14:52:39.186Z,8.64
2022-12-15T14:55:53.016Z,8.11
2022-12-15T14:59:19.255Z,8.49
2022-12-15T15:02:33.128Z,8.55
2022-12-15T15:03:10.012Z,8.70
2022-12-15T15:03:11.382Z,8.71
2022-12-15T15:05:46.819Z,8.61
2022-12-15T15:09:12.850Z,8.66
2022-12-15T15:12:28.934Z,8.69
2022-12-15T15:15:42.849Z,8.65
2022-12-15T15:18:56.469Z,8.76
2022-12-15T15:22:20.163Z,8.27
2022-12-15T15:25:40.269Z,8.62
2022-12-15T15:28:54.932Z,8.57
2022-12-15T15:32:15.985Z,8.47
2022-12-15T15:35:31.467Z,8.29
2022-12-15T15:38:47.375Z,8.42
2022-12-15T15:42:11.670Z,8.45
2022-12-15T15:45:25.576Z,8.40
2022-12-15T15:48:39.675Z,8.53
2022-12-15T15:51:53.588Z,8.41
2022-12-15T15:55:07.690Z,8.05
2022-12-15T15:58:22.933Z,8.02
2022-12-15T16:01:36.980Z,8.31
2022-12-15T16:04:51.031Z,8.10
2022-12-15T16:08:05.089Z,8.21
2022-12-15T16:11:18.564Z,8.32
2022-12-15T16:14:36.411Z,8.35
2022-12-15T16:17:50.320Z,8.05
2022-12-15T16:21:04.179Z,7.64
